Time;durP1;ratioP1;P1;durP2;ratioP2;P2;SDS_P1;SDS_P2;PMS_P1;PMS_P2;Temp;Humidity;BMP_temperature;BMP_pressure;BME280_temperature;BME280_humidity;BME280_pressure;Samples;Min_cycle;Max_cycle;Signal;HPM_P1;HPM_P2
2021/12/06 00:02:10;;;;;;;29.75;14.68;;;;;;;2.26;100.00;100231.16;6163862;29;20043;-93
2021/12/06 00:05:14;;;;;;;29.98;14.20;;;;;;;2.29;100.00;100245.50;6162849;28;20054;-93
2021/12/06 00:08:16;;;;;;;27.27;12.70;;;;;;;2.28;100.00;100247.22;6164715;28;20691;-93
2021/12/06 00:11:19;;;;;;;32.42;14.68;;;;;;;2.28;100.00;100257.44;6176570;28;20046;-93
2021/12/06 00:14:27;;;;;;;35.03;14.43;;;;;;;2.33;100.00;100258.03;6160262;28;20102;-93
2021/12/06 00:17:29;;;;;;;27.02;12.70;;;;;;;2.28;100.00;100257.44;6159659;29;20194;-93
2021/12/06 00:20:31;;;;;;;32.03;14.50;;;;;;;2.29;100.00;100254.00;6157383;29;20126;-93
2021/12/06 00:23:34;;;;;;;34.20;15.35;;;;;;;2.31;100.00;100261.56;6159907;28;20056;-93
2021/12/06 00:26:36;;;;;;;30.73;14.00;;;;;;;2.32;100.00;100265.78;6160737;28;20039;-93
2021/12/06 00:29:38;;;;;;;35.42;15.82;;;;;;;2.33;100.00;100277.63;6155945;28;20054;-93
2021/12/06 00:32:41;;;;;;;33.75;15.00;;;;;;;2.31;100.00;100272.63;6154390;28;20067;-93
2021/12/06 00:35:43;;;;;;;34.35;15.65;;;;;;;2.31;100.00;100280.28;6157560;28;20154;-93
2021/12/06 00:38:45;;;;;;;33.33;14.02;;;;;;;2.35;100.00;100283.50;6153262;29;20051;-93
2021/12/06 00:41:48;;;;;;;33.30;14.02;;;;;;;2.31;100.00;100285.41;6156040;28;20040;-93
2021/12/06 00:44:51;;;;;;;35.53;14.57;;;;;;;2.32;100.00;100278.56;6140751;29;20043;-93
2021/12/06 00:47:54;;;;;;;34.78;15.73;;;;;;;2.32;100.00;100278.56;6157780;28;20243;-93
2021/12/06 00:50:56;;;;;;;33.70;14.80;;;;;;;2.29;100.00;100271.88;6140879;29;20500;-93
2021/12/06 00:53:59;;;;;;;32.45;14.50;;;;;;;2.32;100.00;100281.09;6140636;29;20040;-93
2021/12/06 00:57:12;;;;;;;35.42;15.02;;;;;;;2.31;100.00;100287.94;6172736;28;20564;-93
2021/12/06 01:00:20;;;;;;;31.27;13.30;;;;;;;2.31;100.00;100293.06;6151029;28;20053;-93
2021/12/06 01:03:28;;;;;;;33.95;14.52;;;;;;;2.32;100.00;100309.19;6155205;29;20061;-93
2021/12/06 01:06:31;;;;;;;30.92;14.07;;;;;;;2.33;100.00;100316.75;6150476;29;20047;-93
2021/12/06 01:09:33;;;;;;;33.22;15.27;;;;;;;2.33;100.00;100323.59;6155141;29;20098;-93
2021/12/06 01:12:36;;;;;;;32.70;13.45;;;;;;;2.42;100.00;100324.91;6157209;28;20046;-93
2021/12/06 01:15:40;;;;;;;30.98;13.43;;;;;;;2.31;100.00;100322.84;6171344;28;20050;-93
2021/12/06 01:18:43;;;;;;;36.72;16.13;;;;;;;2.21;100.00;100329.28;6154398;29;20202;-93
2021/12/06 01:21:53;;;;;;;39.42;14.52;;;;;;;2.18;100.00;100325.16;6153963;29;20047;-93
2021/12/06 01:25:07;;;;;;;35.28;14.35;;;;;;;2.20;100.00;100335.31;6138857;29;20058;-93
2021/12/06 01:31:57;;;;;;;38.33;15.70;;;;;;;2.21;100.00;100332.69;6153609;29;20051;-93
2021/12/06 01:41:28;;;;;;;41.80;17.77;;;;;;;2.12;100.00;100336.50;6153484;29;20081;-93
2021/12/06 01:44:34;;;;;;;40.33;15.85;;;;;;;2.10;100.00;100347.69;6153858;28;20046;-93
2021/12/06 01:47:48;;;;;;;41.75;16.58;;;;;;;2.11;100.00;100356.97;6151248;28;20059;-93
2021/12/06 01:50:53;;;;;;;43.10;15.70;;;;;;;2.15;100.00;100364.44;6153082;29;20043;-93
2021/12/06 01:53:58;;;;;;;42.28;15.90;;;;;;;2.04;100.00;100353.09;6167636;28;20047;-93
2021/12/06 01:57:00;;;;;;;41.95;16.75;;;;;;;1.97;100.00;100370.41;6156399;28;20090;-93
2021/12/06 02:00:13;;;;;;;41.53;17.30;;;;;;;1.97;100.00;100367.03;6151760;28;20493;-93
2021/12/06 02:03:20;;;;;;;41.45;16.90;;;;;;;1.96;100.00;100367.91;6149991;28;20130;-93
2021/12/06 02:06:30;;;;;;;43.33;18.15;;;;;;;1.93;100.00;100372.25;6152384;29;20219;-93
2021/12/06 02:09:32;;;;;;;38.97;18.80;;;;;;;1.96;100.00;100373.00;6131386;29;20054;-93
2021/12/06 02:12:39;;;;;;;42.60;17.58;;;;;;;1.94;100.00;100373.94;6154573;28;20051;-93
2021/12/06 02:15:49;;;;;;;42.92;17.90;;;;;;;1.99;100.00;100365.22;6152959;29;20062;-93
2021/12/06 02:19:02;;;;;;;39.22;16.50;;;;;;;1.99;100.00;100380.53;6169359;28;20055;-93
2021/12/06 02:22:06;;;;;;;42.40;16.63;;;;;;;1.89;100.00;100370.75;6151646;29;20043;-93
2021/12/06 02:25:14;;;;;;;35.28;16.70;;;;;;;1.90;100.00;100379.22;6154620;29;20046;-93
2021/12/06 02:28:18;;;;;;;41.47;18.02;;;;;;;1.99;100.00;100378.81;6159764;28;20043;-93
2021/12/06 02:31:24;;;;;;;44.50;18.75;;;;;;;1.92;100.00;100373.16;6156950;29;20584;-93
2021/12/06 02:34:26;;;;;;;43.20;18.63;;;;;;;1.90;100.00;100385.16;6157628;29;20054;-93
2021/12/06 02:37:32;;;;;;;42.63;17.55;;;;;;;1.87;100.00;100385.31;6156529;29;20050;-93
2021/12/06 02:40:40;;;;;;;41.97;19.05;;;;;;;1.95;100.00;100384.97;6171774;28;20062;-93
2021/12/06 02:43:42;;;;;;;39.83;18.17;;;;;;;1.88;100.00;100386.94;6153778;28;20071;-93
2021/12/06 02:46:47;;;;;;;43.83;19.42;;;;;;;1.84;100.00;100389.69;6157133;29;20067;-93
2021/12/06 02:49:50;;;;;;;43.65;20.58;;;;;;;1.86;100.00;100393.03;6154590;29;20039;-93
2021/12/06 02:52:54;;;;;;;49.70;19.92;;;;;;;1.80;100.00;100391.56;6158998;29;20061;-93
2021/12/06 02:55:59;;;;;;;49.42;19.67;;;;;;;1.82;100.00;100388.97;6157877;29;20382;-93
2021/12/06 02:59:08;;;;;;;43.97;20.02;;;;;;;1.76;100.00;100392.59;6152737;28;20047;-93
2021/12/06 03:02:16;;;;;;;44.83;19.25;;;;;;;1.79;100.00;100400.16;6160047;29;20115;-93
2021/12/06 03:05:19;;;;;;;47.67;20.42;;;;;;;1.86;100.00;100398.97;6149969;28;20063;-93
2021/12/06 03:08:54;;;;;;;51.03;20.52;;;;;;;1.82;100.00;100400.00;6143903;29;20047;-93
2021/12/06 03:12:19;;;;;;;45.70;20.48;;;;;;;1.82;100.00;100407.66;6160795;29;20508;-93
2021/12/06 03:15:22;;;;;;;52.45;20.67;;;;;;;1.78;100.00;100407.84;6173049;28;20047;-93
2021/12/06 03:18:24;;;;;;;48.83;20.17;;;;;;;1.78;100.00;100405.31;6162781;28;20047;-93
2021/12/06 03:21:27;;;;;;;53.08;21.13;;;;;;;1.76;100.00;100404.53;6163642;29;20047;-93
2021/12/06 03:24:43;;;;;;;49.38;20.38;;;;;;;1.76;100.00;100399.44;6149957;29;20051;-93
2021/12/06 03:27:48;;;;;;;43.88;19.27;;;;;;;1.70;100.00;100406.47;6159915;28;20041;-92
2021/12/06 03:30:51;;;;;;;53.58;20.48;;;;;;;1.76;100.00;100409.63;6175842;28;20032;-93
2021/12/06 03:33:56;;;;;;;46.40;19.52;;;;;;;1.69;100.00;100409.06;6164733;28;20035;-93
2021/12/06 03:37:01;;;;;;;51.95;20.13;;;;;;;1.68;100.00;100403.16;6166600;28;20057;-93
2021/12/06 03:40:07;;;;;;;50.85;21.25;;;;;;;1.71;100.00;100414.94;6161802;29;20050;-93
2021/12/06 03:43:10;;;;;;;41.20;18.77;;;;;;;1.72;100.00;100403.84;6180748;28;20061;-93
2021/12/06 03:46:16;;;;;;;45.70;19.83;;;;;;;1.70;100.00;100410.75;6167586;29;20051;-92
2021/12/06 03:49:24;;;;;;;43.80;18.95;;;;;;;1.68;100.00;100426.13;6177270;28;20043;-93
2021/12/06 03:52:27;;;;;;;43.80;18.85;;;;;;;1.69;100.00;100429.47;6161161;29;20047;-93
2021/12/06 03:55:32;;;;;;;50.10;19.27;;;;;;;1.68;100.00;100436.31;6154372;29;20039;-93
2021/12/06 03:58:35;;;;;;;46.25;19.17;;;;;;;1.68;100.00;100438.03;6137660;28;20043;-93
2021/12/06 04:01:38;;;;;;;46.78;19.35;;;;;;;1.69;100.00;100442.25;6151264;29;20051;-93
2021/12/06 04:04:44;;;;;;;48.85;19.25;;;;;;;1.73;100.00;100451.44;6143914;29;20051;-93
2021/12/06 04:07:47;;;;;;;43.00;19.60;;;;;;;1.73;100.00;100446.31;6168500;28;20055;-92
2021/12/06 04:10:49;;;;;;;45.08;18.65;;;;;;;1.77;100.00;100452.97;6156205;28;20043;-93
2021/12/06 04:13:53;;;;;;;47.45;20.23;;;;;;;1.73;100.00;100459.91;6157147;28;20059;-93
2021/12/06 04:16:56;;;;;;;42.88;19.98;;;;;;;1.75;100.00;100457.31;6140452;29;20054;-93
2021/12/06 04:19:58;;;;;;;47.03;19.85;;;;;;;1.76;100.00;100463.22;6140015;29;20043;-93
2021/12/06 04:23:05;;;;;;;50.13;19.80;;;;;;;1.73;100.00;100456.53;6156501;28;20055;-93
2021/12/06 04:26:07;;;;;;;43.45;18.60;;;;;;;1.73;100.00;100459.09;6155041;28;20055;-93
2021/12/06 04:29:12;;;;;;;45.67;18.00;;;;;;;1.73;100.00;100457.34;6156842;28;20045;-93
2021/12/06 04:32:22;;;;;;;42.85;19.10;;;;;;;1.75;100.00;100462.41;6167989;28;20043;-93
2021/12/06 04:35:30;;;;;;;45.42;18.88;;;;;;;1.72;100.00;100457.44;6151670;29;20050;-93
2021/12/06 04:38:33;;;;;;;42.50;17.85;;;;;;;1.70;100.00;100461.78;6151866;28;20050;-93
2021/12/06 04:41:37;;;;;;;43.75;17.58;;;;;;;1.70;100.00;100461.78;6137113;29;20059;-93
2021/12/06 04:44:41;;;;;;;45.17;19.17;;;;;;;1.72;100.00;100467.66;6154589;29;20134;-92
2021/12/06 04:47:43;;;;;;;47.72;19.98;;;;;;;1.80;100.00;100462.22;6150281;28;20039;-93
2021/12/06 04:50:46;;;;;;;42.15;18.67;;;;;;;1.72;100.00;100460.81;6153502;29;20051;-92
2021/12/06 04:53:51;;;;;;;43.33;19.42;;;;;;;1.69;100.00;100468.59;6150443;29;20051;-92
2021/12/06 04:57:01;;;;;;;45.30;18.80;;;;;;;1.72;100.00;100478.69;6138054;29;20047;-93
2021/12/06 05:00:12;;;;;;;48.15;19.50;;;;;;;1.72;100.00;100481.22;6150189;29;20043;-93
2021/12/06 05:03:16;;;;;;;43.35;17.13;;;;;;;1.73;100.00;100485.41;6134843;29;20081;-92
2021/12/06 05:06:23;;;;;;;45.33;19.33;;;;;;;1.71;100.00;100484.69;6151558;28;20055;-92
2021/12/06 05:09:35;;;;;;;51.15;19.27;;;;;;;1.76;100.00;100487.00;6134729;29;20043;-92
2021/12/06 05:12:37;;;;;;;47.97;18.08;;;;;;;1.70;100.00;100487.28;6149852;29;20051;-92
2021/12/06 05:15:39;;;;;;;49.63;20.50;;;;;;;1.70;100.00;100494.94;6148360;29;20194;-93
2021/12/06 05:18:42;;;;;;;47.05;18.13;;;;;;;1.71;100.00;100501.69;6150694;28;20051;-92
2021/12/06 05:21:44;;;;;;;46.92;18.63;;;;;;;1.71;100.00;100496.59;6150356;28;20039;-93
2021/12/06 05:24:47;;;;;;;47.92;18.02;;;;;;;1.69;100.00;100516.22;6133291;29;20441;-92
2021/12/06 05:27:51;;;;;;;43.20;17.67;;;;;;;1.72;100.00;100519.50;6151013;28;20045;-92
2021/12/06 05:30:56;;;;;;;47.05;17.52;;;;;;;1.71;100.00;100529.75;6149692;29;20050;-92
2021/12/06 05:34:03;;;;;;;50.00;17.73;;;;;;;1.70;100.00;100523.84;6135522;29;20046;-92
2021/12/06 05:37:08;;;;;;;50.67;17.58;;;;;;;1.69;100.00;100524.75;6146740;29;20040;-92
2021/12/06 05:40:15;;;;;;;48.15;17.98;;;;;;;1.65;100.00;100530.03;6148987;28;20135;-92
2021/12/06 05:43:17;;;;;;;49.63;17.05;;;;;;;1.64;100.00;100539.41;6152531;28;20043;-92
2021/12/06 05:46:20;;;;;;;48.28;17.08;;;;;;;1.65;100.00;100538.50;6152710;28;20058;-93
2021/12/06 05:49:22;;;;;;;41.50;16.45;;;;;;;1.66;100.00;100534.22;6150536;28;20153;-92
2021/12/06 05:52:25;;;;;;;43.35;17.13;;;;;;;1.67;100.00;100541.00;6152159;29;20122;-92
2021/12/06 05:55:28;;;;;;;44.88;17.30;;;;;;;1.68;100.00;100545.22;6151798;28;20039;-92
2021/12/06 05:58:32;;;;;;;41.65;16.40;;;;;;;1.65;100.00;100546.16;6148827;28;20054;-92
2021/12/06 06:01:34;;;;;;;38.80;14.32;;;;;;;1.65;100.00;100553.00;6099912;29;1349576;-92
2021/12/06 06:04:37;;;;;;;43.38;16.65;;;;;;;1.67;100.00;100546.94;6126469;29;20066;-92
2021/12/06 06:07:39;;;;;;;37.55;14.55;;;;;;;1.70;100.00;100545.97;6148851;28;20652;-92
2021/12/06 06:10:41;;;;;;;40.75;16.45;;;;;;;1.72;100.00;100559.50;6151760;28;20070;-92
2021/12/06 06:13:43;;;;;;;41.00;16.25;;;;;;;1.69;100.00;100555.34;6153058;28;20143;-92
2021/12/06 06:16:52;;;;;;;37.90;15.15;;;;;;;1.71;100.00;100555.28;6148230;29;20042;-92
2021/12/06 06:19:57;;;;;;;35.75;14.75;;;;;;;1.71;100.00;100561.22;6148423;28;20052;-92
2021/12/06 06:23:00;;;;;;;42.95;17.55;;;;;;;1.70;100.00;100566.38;6153606;28;20098;-92
2021/12/06 06:26:02;;;;;;;34.30;14.68;;;;;;;1.69;100.00;100570.66;6141806;29;20059;-92
2021/12/06 06:29:05;;;;;;;50.28;16.75;;;;;;;1.67;100.00;100579.28;6115876;29;20429;-92
2021/12/06 06:32:08;;;;;;;39.78;16.45;;;;;;;1.67;100.00;100582.66;6165055;28;20062;-92
2021/12/06 06:35:10;;;;;;;38.50;15.68;;;;;;;1.69;100.00;100583.44;6139987;28;20115;-93
2021/12/06 06:38:14;;;;;;;41.97;16.40;;;;;;;1.78;100.00;100594.13;6139720;29;20126;-92
2021/12/06 06:41:22;;;;;;;42.90;17.30;;;;;;;1.70;100.00;100592.72;6141441;29;20552;-92
2021/12/06 06:44:24;;;;;;;43.75;15.82;;;;;;;1.68;100.00;100602.16;6139138;29;20063;-92
2021/12/06 06:47:26;;;;;;;44.55;16.80;;;;;;;1.69;100.00;100600.44;6153149;29;20044;-92
2021/12/06 06:50:29;;;;;;;49.60;18.08;;;;;;;1.68;100.00;100601.34;6136187;28;20043;-92
2021/12/06 06:53:31;;;;;;;45.40;17.10;;;;;;;1.66;100.00;100603.13;6137801;29;20058;-92
2021/12/06 06:56:34;;;;;;;44.75;17.45;;;;;;;1.62;100.00;100601.59;6142353;29;20079;-92
2021/12/06 06:59:36;;;;;;;44.30;17.50;;;;;;;1.64;100.00;100604.88;6150396;29;20937;-93
2021/12/06 07:02:39;;;;;;;43.33;16.95;;;;;;;1.63;100.00;100608.34;6153276;29;20508;-92
2021/12/06 07:05:42;;;;;;;43.47;16.40;;;;;;;1.65;100.00;100614.22;6138034;29;20077;-92
2021/12/06 07:08:44;;;;;;;45.00;18.42;;;;;;;1.67;100.00;100622.66;6150073;28;20047;-92
2021/12/06 07:11:46;;;;;;;47.40;16.75;;;;;;;1.64;100.00;100615.09;6147350;29;20044;-92
2021/12/06 07:14:49;;;;;;;45.17;17.75;;;;;;;1.66;100.00;100628.63;6136190;29;20051;-92
2021/12/06 07:17:51;;;;;;;47.75;17.50;;;;;;;1.64;100.00;100631.25;6125864;29;20047;-92
2021/12/06 07:20:54;;;;;;;46.20;16.15;;;;;;;1.62;100.00;100634.75;6128684;29;20070;-92
2021/12/06 07:23:56;;;;;;;48.40;17.73;;;;;;;1.62;100.00;100627.13;6137720;29;20147;-93
2021/12/06 07:26:59;;;;;;;43.03;17.30;;;;;;;1.65;100.00;100622.69;6147159;29;20051;-92
2021/12/06 07:30:01;;;;;;;42.03;17.65;;;;;;;1.57;100.00;100623.91;6153116;28;20531;-92
2021/12/06 07:33:04;;;;;;;40.13;16.98;;;;;;;1.58;100.00;100628.94;6142272;28;20075;-92
2021/12/06 07:36:07;;;;;;;45.65;17.65;;;;;;;1.59;100.00;100634.88;6152155;29;20058;-92
2021/12/06 07:39:10;;;;;;;40.65;18.20;;;;;;;1.55;100.00;100631.63;6151960;28;20055;-92
2021/12/06 07:42:13;;;;;;;44.40;19.13;;;;;;;1.55;100.00;100626.50;6150299;29;20051;-92
2021/12/06 07:45:16;;;;;;;42.78;18.35;;;;;;;1.54;100.00;100627.41;6152108;29;20058;-92
2021/12/06 07:48:19;;;;;;;43.83;18.23;;;;;;;1.54;100.00;100629.13;6140951;29;20054;-92
2021/12/06 07:51:23;;;;;;;40.08;17.08;;;;;;;1.54;100.00;100629.13;6149423;29;20038;-92
2021/12/06 07:54:25;;;;;;;36.33;15.68;;;;;;;1.53;100.00;100624.91;6131401;29;20288;-92
2021/12/06 07:57:28;;;;;;;33.45;16.27;;;;;;;1.52;100.00;100629.19;6144108;29;20640;-92
2021/12/06 08:00:33;;;;;;;40.10;17.20;;;;;;;1.55;100.00;100623.16;6144651;29;20051;-92
2021/12/06 08:03:38;;;;;;;33.92;17.42;;;;;;;1.53;100.00;100625.75;6153118;29;20047;-92
2021/12/06 08:06:53;;;;;;;30.55;16.65;;;;;;;1.54;100.00;100624.03;6149547;29;20133;-92
2021/12/06 08:09:55;;;;;;;30.58;15.65;;;;;;;1.55;100.00;100621.41;6140928;29;20121;-92
2021/12/06 08:12:57;;;;;;;29.13;15.73;;;;;;;1.52;100.00;100621.53;6147467;28;20485;-92
2021/12/06 08:16:04;;;;;;;31.77;15.38;;;;;;;1.50;100.00;100629.25;6153470;29;20103;-92
2021/12/06 08:19:07;;;;;;;31.27;15.15;;;;;;;1.51;100.00;100632.63;6133367;29;20051;-92
2021/12/06 08:22:09;;;;;;;32.17;15.98;;;;;;;1.51;100.00;100646.19;6137502;29;20066;-92
2021/12/06 08:25:13;;;;;;;34.90;16.85;;;;;;;1.54;100.00;100644.44;6137570;28;20044;-92
2021/12/06 08:28:17;;;;;;;32.88;15.88;;;;;;;1.57;100.00;100644.31;6142383;28;20035;-92
2021/12/06 08:31:22;;;;;;;30.45;16.00;;;;;;;1.55;100.00;100644.38;6131613;29;20174;-92
2021/12/06 08:34:24;;;;;;;39.97;17.40;;;;;;;1.55;100.00;100639.28;6136324;29;20254;-92
2021/12/06 08:37:26;;;;;;;33.28;17.52;;;;;;;1.62;100.00;100637.31;6125208;29;20044;-91
2021/12/06 08:40:29;;;;;;;33.15;16.35;;;;;;;1.65;100.00;100642.28;6122880;29;20126;-91
2021/12/06 08:43:32;;;;;;;35.38;16.27;;;;;;;1.65;100.00;100640.56;6149292;28;20122;-91
2021/12/06 08:46:38;;;;;;;36.08;16.98;;;;;;;1.65;100.00;100637.19;6138161;28;20648;-91
2021/12/06 08:49:41;;;;;;;41.38;18.10;;;;;;;1.71;100.00;100631.81;6134457;28;20121;-91
2021/12/06 08:52:44;;;;;;;34.08;17.33;;;;;;;1.73;100.00;100624.94;6123891;28;20139;-91
2021/12/06 08:55:46;;;;;;;34.53;16.98;;;;;;;1.76;100.00;100622.25;6142030;28;20062;-91
2021/12/06 08:58:50;;;;;;;39.40;19.45;;;;;;;1.76;100.00;100626.53;6134975;29;20488;-91
2021/12/06 09:01:56;;;;;;;39.08;17.27;;;;;;;1.79;100.00;100629.81;6143780;29;20043;-91
2021/12/06 09:05:18;;;;;;;37.13;17.25;;;;;;;1.77;100.00;100621.38;6133464;29;20043;-91
2021/12/06 09:08:23;;;;;;;38.28;17.27;;;;;;;1.84;100.00;100619.38;6132985;28;20046;-91
2021/12/06 09:11:25;;;;;;;36.20;17.50;;;;;;;1.87;100.00;100622.66;6137133;28;20043;-91
2021/12/06 09:14:28;;;;;;;35.92;17.88;;;;;;;1.91;100.00;100631.00;6141482;28;20051;-91
2021/12/06 09:17:31;;;;;;;36.83;17.67;;;;;;;1.96;100.00;100629.09;6139958;28;20064;-91
2021/12/06 09:20:37;;;;;;;35.72;17.40;;;;;;;1.94;100.00;100620.69;6133408;29;20192;-91
2021/12/06 09:23:40;;;;;;;40.15;18.98;;;;;;;1.96;100.00;100625.72;6130239;28;20044;-91
2021/12/06 09:26:43;;;;;;;41.53;18.67;;;;;;;2.03;100.00;100625.41;6130994;29;20051;-90
2021/12/06 09:29:45;;;;;;;41.08;18.25;;;;;;;2.10;100.00;100626.81;6128187;28;20044;-91
2021/12/06 09:32:50;;;;;;;40.35;19.30;;;;;;;2.14;100.00;100627.50;6132118;28;20035;-91
2021/12/06 09:36:00;;;;;;;39.58;17.88;;;;;;;2.24;100.00;100631.34;6134064;29;20461;-91
2021/12/06 09:39:05;;;;;;;42.25;19.85;;;;;;;2.21;100.00;100628.91;6126450;29;20046;-91
2021/12/06 09:42:07;;;;;;;39.85;18.75;;;;;;;2.23;100.00;100624.56;6144960;28;20051;-91
2021/12/06 09:45:28;;;;;;;41.03;19.38;;;;;;;2.18;100.00;100626.47;6133503;28;20075;-91
2021/12/06 09:48:31;;;;;;;47.15;20.10;;;;;;;2.17;100.00;100624.81;6132960;29;20044;-91
2021/12/06 09:51:35;;;;;;;47.45;20.10;;;;;;;2.22;100.00;100627.19;6136409;29;20043;-91
2021/12/06 09:54:40;;;;;;;42.42;19.40;;;;;;;2.22;100.00;100629.75;6127876;29;20054;-91
2021/12/06 09:57:42;;;;;;;44.20;19.48;;;;;;;2.20;100.00;100624.69;6133790;29;20052;-91
2021/12/06 10:00:47;;;;;;;44.70;21.05;;;;;;;2.23;100.00;100614.34;6129934;29;20039;-91
2021/12/06 10:03:50;;;;;;;45.72;20.77;;;;;;;2.20;100.00;100619.56;6124931;28;20048;-90
2021/12/06 10:06:54;;;;;;;46.15;19.90;;;;;;;2.20;100.00;100624.69;6122828;29;20070;-91
2021/12/06 10:09:56;;;;;;;42.20;19.30;;;;;;;2.24;100.00;100627.97;6131574;29;20051;-91
2021/12/06 10:12:59;;;;;;;41.38;18.58;;;;;;;2.31;100.00;100632.72;6119961;29;20493;-91
2021/12/06 10:16:08;;;;;;;47.83;21.48;;;;;;;2.31;100.00;100624.22;6123591;29;20632;-91
2021/12/06 10:19:12;;;;;;;43.13;19.13;;;;;;;2.32;100.00;100629.28;6125605;28;20115;-91
2021/12/06 10:22:15;;;;;;;44.50;19.05;;;;;;;2.26;100.00;100624.44;6118718;29;20110;-91
2021/12/06 10:25:18;;;;;;;51.53;21.80;;;;;;;2.29;100.00;100629.41;6138839;28;20138;-91
2021/12/06 10:28:38;;;;;;;49.75;21.17;;;;;;;2.28;100.00;100626.91;6123339;28;20051;-91
2021/12/06 10:31:43;;;;;;;44.85;20.33;;;;;;;2.24;100.00;100626.22;6124186;28;20107;-91
2021/12/06 10:34:50;;;;;;;45.63;19.75;;;;;;;2.21;100.00;100626.38;6116722;29;20052;-91
2021/12/06 10:37:54;;;;;;;47.55;21.40;;;;;;;2.20;100.00;100622.13;6124965;29;20047;-91
2021/12/06 10:40:59;;;;;;;45.67;19.27;;;;;;;2.18;100.00;100618.81;6129815;29;20712;-91
2021/12/06 10:44:11;;;;;;;49.92;21.30;;;;;;;2.19;100.00;100615.38;6134237;28;20041;-91
2021/12/06 10:47:13;;;;;;;40.60;19.63;;;;;;;2.21;100.00;100618.69;6133923;28;20051;-91
2021/12/06 10:50:19;;;;;;;44.95;20.67;;;;;;;2.21;100.00;100605.09;6124134;29;20054;-91
2021/12/06 10:53:45;;;;;;;45.40;18.55;;;;;;;2.23;100.00;100604.13;6134371;28;20046;-91
2021/12/06 10:56:51;;;;;;;45.08;19.38;;;;;;;2.29;100.00;100598.75;6123440;29;20408;-90
2021/12/06 10:59:53;;;;;;;48.42;19.88;;;;;;;2.33;100.00;100587.50;6129968;28;20093;-91
2021/12/06 11:02:56;;;;;;;42.58;19.70;;;;;;;2.39;100.00;100583.03;6129340;29;20051;-88
2021/12/06 11:06:02;;;;;;;37.05;18.55;;;;;;;2.48;100.00;100575.78;6125070;29;20097;-91
2021/12/06 11:09:05;;;;;;;43.25;19.17;;;;;;;2.56;100.00;100570.34;6140201;28;20130;-90
2021/12/06 11:12:09;;;;;;;44.45;19.55;;;;;;;2.59;100.00;100560.81;6138011;28;20151;-91
2021/12/06 11:15:13;;;;;;;42.75;18.25;;;;;;;2.64;100.00;100572.56;6134917;28;20051;-91
2021/12/06 11:18:15;;;;;;;42.83;19.45;;;;;;;2.71;100.00;100561.97;6134336;28;20044;-91
2021/12/06 11:21:44;;;;;;;38.10;18.88;;;;;;;2.83;100.00;100563.13;6128553;28;20051;-91
2021/12/06 11:24:51;;;;;;;39.78;17.13;;;;;;;2.83;100.00;100572.53;6130369;28;20079;-91
2021/12/06 11:27:53;;;;;;;40.08;18.40;;;;;;;2.78;100.00;100558.25;6134265;28;20043;-91
2021/12/06 11:31:06;;;;;;;37.80;18.83;;;;;;;2.85;100.00;100561.34;6138327;29;20375;-91
2021/12/06 11:34:09;;;;;;;38.33;18.98;;;;;;;2.91;100.00;100557.69;6132044;29;20113;-91
2021/12/06 11:37:16;;;;;;;34.88;16.33;;;;;;;2.92;100.00;100569.56;6121321;29;20058;-91
2021/12/06 11:40:31;;;;;;;37.17;17.42;;;;;;;2.85;100.00;100563.88;6123153;29;20052;-91
2021/12/06 11:43:38;;;;;;;34.10;16.95;;;;;;;2.84;100.00;100559.69;6144468;29;20491;-91
2021/12/06 11:46:40;;;;;;;32.72;15.77;;;;;;;2.84;100.00;100558.88;6145151;28;20514;-91
2021/12/06 11:49:47;;;;;;;29.13;14.77;;;;;;;2.85;100.00;100553.66;6145304;28;20118;-91
2021/12/06 11:52:50;;;;;;;33.00;15.75;;;;;;;2.91;100.00;100560.25;6143072;28;20051;-91
2021/12/06 11:56:19;;;;;;;27.08;14.07;;;;;;;2.97;100.00;100554.81;6124897;29;20047;-91
2021/12/06 11:59:22;;;;;;;30.48;14.38;;;;;;;3.06;100.00;100554.41;6135018;28;20048;-91
2021/12/06 12:02:57;;;;;;;31.50;14.75;;;;;;;3.06;100.00;100551.84;6129705;29;20035;-91
2021/12/06 12:06:33;;;;;;;29.38;16.30;;;;;;;3.07;100.00;100545.81;6135969;29;20137;-91
2021/12/06 12:09:40;;;;;;;34.50;15.63;;;;;;;3.05;100.00;100554.47;6137790;28;20095;-91
2021/12/06 12:12:53;;;;;;;28.42;14.65;;;;;;;3.03;100.00;100549.41;6136441;29;20048;-91
2021/12/06 12:16:05;;;;;;;31.20;15.70;;;;;;;3.03;100.00;100546.84;6136329;29;20051;-91
2021/12/06 12:19:07;;;;;;;34.05;15.35;;;;;;;3.01;100.00;100546.94;6125386;29;20416;-91
2021/12/06 12:22:11;;;;;;;37.20;17.08;;;;;;;3.01;100.00;100549.50;6130607;29;20123;-91
2021/12/06 12:25:22;;;;;;;32.30;16.70;;;;;;;2.95;100.00;100541.28;6145741;28;20044;-91
2021/12/06 12:31:57;;;;;;;33.80;16.83;;;;;;;3.03;100.00;100536.63;6121013;28;20060;-91
2021/12/06 12:35:05;;;;;;;30.23;15.63;;;;;;;3.07;100.00;100543.25;6146013;28;20412;-91
2021/12/06 12:38:11;;;;;;;32.20;16.35;;;;;;;3.07;100.00;100535.59;6139500;28;20078;-91
2021/12/06 12:41:17;;;;;;;35.33;16.77;;;;;;;3.15;100.00;100533.47;6120998;29;20040;-91
2021/12/06 12:44:21;;;;;;;31.85;15.95;;;;;;;3.12;100.00;100530.25;6120705;29;20133;-91
2021/12/06 12:47:27;;;;;;;37.15;17.70;;;;;;;3.15;100.00;100522.44;6121608;29;20382;-91
2021/12/06 12:50:35;;;;;;;36.35;16.08;;;;;;;3.29;100.00;100514.09;6138592;29;20055;-91
2021/12/06 12:53:55;;;;;;;33.42;15.25;;;;;;;3.22;100.00;100516.94;6140861;28;20055;-91
2021/12/06 12:57:04;;;;;;;30.83;14.83;;;;;;;3.23;100.00;100517.81;6135315;29;20051;-91
2021/12/06 13:00:17;;;;;;;35.33;16.00;;;;;;;3.23;100.00;100515.25;6135173;29;20297;-91
2021/12/06 13:03:39;;;;;;;32.45;16.20;;;;;;;3.24;100.00;100501.53;6145065;28;20055;-91
2021/12/06 13:06:41;;;;;;;35.83;16.95;;;;;;;3.31;100.00;100502.06;6145076;29;20054;-91
2021/12/06 13:09:43;;;;;;;34.03;17.58;;;;;;;3.34;100.00;100496.78;6135705;28;20039;-91
2021/12/06 13:13:23;;;;;;;38.10;16.08;;;;;;;3.32;100.00;100504.53;6141042;29;20055;-91
2021/12/06 13:19:46;;;;;;;33.80;15.80;;;;;;;3.24;100.00;100489.56;6139683;29;20417;-91
2021/12/06 13:22:51;;;;;;;31.05;14.95;;;;;;;3.37;100.00;100483.84;6131529;28;20174;-91
2021/12/06 13:26:09;;;;;;;32.58;16.58;;;;;;;3.56;100.00;100476.09;6130740;29;20497;-91
2021/12/06 13:29:16;;;;;;;33.53;16.75;;;;;;;3.88;100.00;100485.50;6133095;29;20154;-91
2021/12/06 13:32:36;;;;;;;33.85;17.02;;;;;;;4.13;100.00;100480.84;6130340;29;20773;-91
2021/12/06 13:35:52;;;;;;;35.70;16.67;;;;;;;4.19;100.00;100470.25;6121152;29;20128;-91
2021/12/06 13:39:02;;;;;;;34.60;17.55;;;;;;;4.02;100.00;100468.56;6120963;29;20303;-91
2021/12/06 13:42:12;;;;;;;31.15;16.60;;;;;;;3.81;100.00;100476.47;6129016;29;20047;-91
2021/12/06 13:45:27;;;;;;;30.45;15.57;;;;;;;3.59;100.00;100474.19;6130723;28;20053;-91
2021/12/06 13:48:43;;;;;;;33.63;15.88;;;;;;;3.38;100.00;100473.56;6139893;28;20511;-91
2021/12/06 13:51:55;;;;;;;29.80;14.45;;;;;;;3.35;100.00;100472.84;6135110;29;20054;-91
2021/12/06 13:54:57;;;;;;;31.45;16.00;;;;;;;3.25;100.00;100472.47;6130523;28;20164;-91
2021/12/06 13:58:05;;;;;;;29.15;15.05;;;;;;;3.12;100.00;100477.38;6129629;29;20050;-91
2021/12/06 14:01:07;;;;;;;32.30;15.15;;;;;;;3.01;100.00;100477.09;6127729;29;20070;-91
2021/12/06 14:04:10;;;;;;;34.38;15.82;;;;;;;2.93;100.00;100476.59;6130228;28;20050;-91
2021/12/06 14:07:14;;;;;;;29.73;15.35;;;;;;;2.82;100.00;100474.56;6126779;29;20055;-90
2021/12/06 14:10:16;;;;;;;31.63;16.55;;;;;;;2.77;100.00;100459.44;6135400;28;20433;-90
2021/12/06 14:13:18;;;;;;;28.23;15.02;;;;;;;2.79;100.00;100462.78;6140823;28;20055;-90
2021/12/06 14:16:20;;;;;;;30.52;14.45;;;;;;;2.68;100.00;100472.66;6131877;29;20046;-90
2021/12/06 14:19:27;;;;;;;28.35;14.57;;;;;;;2.65;100.00;100452.38;6119331;29;20044;-90
2021/12/06 14:22:38;;;;;;;30.00;14.88;;;;;;;2.56;100.00;100451.09;6132638;28;20676;-90